Flight Track Log - Related Links

Times and Time Zones

All times are in EST time to prevent confusion due to time zone crossing. See the SWA4092 flight status page for this flight to view local times or setup timezone preferences in your user account.

Time Position Orientation Groundspeed Altitude Reporting Facility
EST Latitude Longitude Course Direction KTS MPH feet Rate Location/Type
Sat 02:41:00 PM 39.1333 -76.6333 90° East 188 216 3,000  Level Potomac TRACON
Sat 02:43:03 PM 39.1122 -76.4931 101° East 197 227 6,900 2,217 Climbing Washington Center
Sat 02:44:04 PM 39.1297 -76.3756 79° East 279 321 9,800 2,727 Climbing Washington Center
Sat 02:45:04 PM 39.1472 -76.2472 80° East 316 364 12,400 2,847 Climbing Washington Center
Sat 02:46:00 PM 39.1500 -76.3264 90° East  Level FlightAware Approximate
Sat 02:46:02 PM 39.1686 -76.1031 79° East 365 420 15,400  Level Washington Center
Sat 02:47:03 PM 39.1836 -75.9583 82° East 384 442 17,400 2,083 Climbing Washington Center
Sat 02:48:03 PM 39.2319 -75.8275 64° Northeast 399 459 19,600 1,983 Climbing Washington Center
Sat 02:49:04 PM 39.3175 -75.7231 43° Northeast 394 453 21,400 1,835 Climbing Washington Center
Sat 02:50:04 PM 39.4053 -75.6078 45° Northeast 421 484 23,300 1,780 Climbing Washington Center
Sat 02:51:02 PM 39.4947 -75.4894 46° Northeast 441 507 24,900 1,563 Climbing Washington Center
Sat 02:52:03 PM 39.5842 -75.3733 45° Northeast 446 513 26,400 1,400 Climbing Washington Center
Sat 02:53:02 PM 39.6756 -75.2492 46° Northeast 458 527 27,700 1,174 Climbing Washington Center
Sat 02:53:35 PM 39.7114 -75.1981 48° Northeast 487 560 28,200 821 Climbing New York Center
Sat 02:54:37 PM 39.8108 -75.0567 47° Northeast 501 577 29,000 390 Climbing New York Center
Sat 02:55:38 PM 39.9108 -74.9267 45° Northeast 510 587 29,000  Level New York Center
Sat 02:56:40 PM 40.0200 -74.7964 42° Northeast 517 595 29,000  Level New York Center
Sat 02:57:41 PM 40.1492 -74.6422 42° Northeast 514 592 29,000  Level New York Center
Sat 02:58:42 PM 40.2503 -74.5203 43° Northeast 507 583 29,000  Level New York Center
Sat 02:59:44 PM 40.3553 -74.3933 43° Northeast 507 583 29,000  Level New York Center
Sat 03:00:45 PM 40.4575 -74.2694 43° Northeast 500 575 29,000  Level New York Center
Sat 03:01:47 PM 40.5611 -74.1458 42° Northeast 500 575 29,000 -1,306 Level New York Center
Sat 03:02:49 PM 40.6614 -74.0194 44° Northeast 500 575 26,300 -2,213 Descending New York Center
Sat 03:03:49 PM 40.7586 -73.8986 43° Northeast 485 558 24,500 -1,131 Descending New York Center
Sat 03:04:51 PM 40.8533 -73.7878 41° Northeast 463 533 24,000 -732 Descending New York Center
Sat 03:05:52 PM 40.9819 -73.6706 35° Northeast 466 536 23,000 -492 Descending New York Center
Sat 03:06:53 PM 41.0933 -73.6136 21° North 433 498 23,000 -218 Level New York Center
Sat 03:07:42 PM 41.1569 -73.5794 22° Northeast 431 496 22,600 -722 Descending Boston Center
Sat 03:08:41 PM 41.2683 -73.5186 22° Northeast 427 491 21,700 -1,279 Descending Boston Center
Sat 03:09:44 PM 41.3969 -73.4494 22° Northeast 417 480 20,000 -1,500 Descending Boston Center
Sat 03:10:45 PM 41.5000 -73.3947 22° Northeast 401 461 18,600 -1,200 Descending Boston Center
Sat 03:11:44 PM 41.5997 -73.3419 22° Northeast 389 448 17,600 -1,714 Descending Boston Center
Sat 03:12:44 PM 41.6953 -73.3500 356° North 347 399 15,200 -1,869 Descending Boston Center
Sat 03:13:46 PM 41.7867 -73.3900 342° North 345 397 13,800 -1,869 Descending Boston Center
Sat 03:14:46 PM 41.8775 -73.4292 342° North 324 373 11,400 -1,191 Descending Boston Center
Sat 03:16:07 PM 41.9908 -73.4775 342° North 325 374 11,000 -242 Descending Boston Center
Sat 03:16:25 PM 42.0186 -73.4894 342° North 330 380 11,000 -140 Level Boston Center
Sat 03:16:50 PM 42.0522 -73.5036 343° North 334 384 10,900  Descending Boston Center
Sat 03:17:33 PM 42.1183 -73.5308 343° North 353 406 11,000 98 Climbing Boston Center
Sat 03:17:51 PM 42.1403 -73.5383 346° North 350 403 11,000 -100 Level Boston Center
Sat 03:18:33 PM 42.2094 -73.5725 340° North 344 396 10,900 -100 Descending Boston Center
Sat 03:18:51 PM 42.2272 -73.5839 335° Northwest 339 390 10,900 -1,698 Level Boston Center
Sat 03:19:26 PM 42.2744 -73.6172 332° Northwest 278 320 9,400 -2,100 Descending Boston Center
Sat 03:19:51 PM 42.2961 -73.6303 336° Northwest 291 335 8,800 -1,869 Descending Boston Center
Sat 03:20:27 PM 42.3458 -73.6611 335° Northwest 271 312 7,500 -2,361 Descending Boston Center
Sat 03:20:52 PM 42.3786 -73.6806 336° Northwest 280 322 6,400 -2,262 Descending Boston Center
Sat 03:21:28 PM 42.4144 -73.7072 331° Northwest 276 318 5,200 -1,869 Descending Boston Center
Sat 03:21:53 PM 42.4483 -73.7264 337° Northwest 280 322 4,500 -1,377 Descending Boston Center
Sat 03:22:29 PM 42.4839 -73.7508 333° Northwest 278 320 3,800 -1,100 Descending Boston Center
Sat 03:22:53 PM 42.5156 -73.7700 336° Northwest 270 311 3,400 -915 Descending Boston Center
Sat 03:23:28 PM 42.5511 -73.7939 334° Northwest 237 273 2,900 -774 Descending Boston Center
Sat 03:23:55 PM 42.5739 -73.7967 355° North 223 257 2,600 -295 Descending Boston Center
Sat 03:24:29 PM 42.6056 -73.8006 355° North 181 208 2,600  Level Boston Center
Sat 03:24:54 PM 42.6264 -73.7994 North 187 215 2,600 -476 Level Boston Center
Sat 03:25:32 PM 42.6547 -73.8025 355° North 173 199 2,100 -871 Descending Boston Center
Sat 03:25:56 PM 42.6753 -73.8019 North 179 206 1,700 -800 Descending Boston Center
Sat 03:26:32 PM 42.6956 -73.8019 360° North 141 162 1,300 -787 Descending Boston Center
Sat 03:26:57 PM 42.7128 -73.8039 355° North 129 148 900 -787 Descending Boston Center
Sat 03:27:33 PM 42.7294 -73.8044 359° North 112 129 500 -600 Descending Boston Center
Sat 03:27:57 PM 42.7403 -73.8064 352° North 120 138 300 -500 Descending Boston Center
Sat 03:29:00 PM 42.7491 -73.8020 20° North  Level Estimated
Sat 03:36:00 PM 42.7491 -73.8020 304° West  Level Estimated
Sat 03:37:00 PM 42.7491 -73.8020 304° West  Level Estimated

Login

Don't have an account? Register now (free) for customized features, flight alerts, and more!